LIPL/QBS METAR and TAF weather

Enter ICAO airport designator
Station Type Date Time Source
LIPL METAR 2022/06/29 23:55 UTC NOAA

LIPL 292355Z 07003KT CAVOK 23/21 Q1011


Station Type Date Time Source
LIPL Decoded METAR 2022/06/29 23:55 UTC NOAA

Brescia / Ghedi, Italy (LIPL) 45-25N 010-17E 97M
Jun 29, 2022 - 07:55 PM EDT / 2022.06.29 2355 UTC
Wind: from the ENE (070 degrees) at 3 MPH (3 KT):0
Visibility: greater than 7 mile(s):0
Temperature: 73 F (23 C)
Dew Point: 69 F (21 C)
Relative Humidity: 88%
Pressure (altimeter): 29.85 in. Hg (1011 hPa)
ob: LIPL 292355Z 07003KT CAVOK 23/21 Q1011
cycle: 0

Station Type Date Time Source
LIPL TAF 2022/06/07 18:24 UTC NOAA

TAF TAF LIPL 071700Z 0718/0806 09009KT 9999 FEW035

Example: see airport list